createdAt,value
2019-06-07T00:01:29.640Z,97392.42
2019-06-07T00:03:56.449Z,97392.03
2019-06-07T00:06:25.368Z,97402.23
2019-06-07T00:08:52.197Z,97395.70
2019-06-07T00:11:20.690Z,97400.13
2019-06-07T00:13:47.638Z,97399.74
2019-06-07T00:16:19.105Z,97394.41
2019-06-07T00:18:43.280Z,97393.99
2019-06-07T00:21:10.090Z,97389.08
2019-06-07T00:23:36.905Z,97385.57
2019-06-07T00:26:03.841Z,97388.06
2019-06-07T00:28:30.549Z,97385.25
2019-06-07T00:30:57.392Z,97381.78
2019-06-07T00:33:25.101Z,97377.98
2019-06-07T00:35:52.111Z,97377.67
2019-06-07T00:38:21.751Z,97379.67
2019-06-07T00:40:48.132Z,97383.02
2019-06-07T00:43:17.611Z,97384.06
2019-06-07T00:45:43.474Z,97375.04
2019-06-07T00:48:16.192Z,97370.13
2019-06-07T00:50:39.257Z,97368.44
2019-06-07T00:53:17.544Z,97366.12
2019-06-07T00:55:34.848Z,97364.75
2019-06-07T00:58:07.717Z,97362.56
2019-06-07T01:00:34.512Z,97366.80
2019-06-07T01:03:01.343Z,97369.61
2019-06-07T01:05:31.425Z,97368.19
2019-06-07T01:07:56.995Z,97372.11
2019-06-07T01:10:51.788Z,97372.11
2019-06-07T01:12:52.516Z,97374.92
2019-06-07T01:15:27.599Z,97373.15
2019-06-07T01:18:33.224Z,97370.30
2019-06-07T01:20:23.822Z,97370.61
2019-06-07T01:22:48.652Z,97377.20
2019-06-07T01:25:15.818Z,97366.27
2019-06-07T01:27:42.734Z,97362.97
2019-06-07T01:30:10.408Z,97361.23
2019-06-07T01:32:37.354Z,97352.03
2019-06-07T01:35:04.785Z,97354.58
2019-06-07T01:37:31.516Z,97344.82
2019-06-07T01:39:58.224Z,97350.10
2019-06-07T01:42:28.880Z,97352.80
2019-06-07T01:44:58.858Z,97345.84
2019-06-07T01:47:31.236Z,97341.61
2019-06-07T01:49:54.280Z,97343.41
2019-06-07T01:52:23.538Z,97343.47
2019-06-07T01:54:58.030Z,97340.32
2019-06-07T01:57:36.579Z,97340.24
2019-06-07T01:59:47.246Z,97347.44
2019-06-07T02:02:14.133Z,97341.23
2019-06-07T02:04:40.890Z,97346.75
2019-06-07T02:07:07.605Z,97357.17
2019-06-07T02:09:34.429Z,97358.73
2019-06-07T02:12:01.371Z,97363.09
2019-06-07T02:14:30.618Z,97357.67
2019-06-07T02:16:56.956Z,97355.05
2019-06-07T02:19:24.277Z,97348.00
2019-06-07T02:21:51.116Z,97355.50
2019-06-07T02:24:24.487Z,97359.66
2019-06-07T02:26:47.922Z,97354.84
2019-06-07T02:29:14.826Z,97345.38
2019-06-07T02:31:42.700Z,97353.38
2019-06-07T02:34:09.509Z,97351.77
2019-06-07T02:36:41.346Z,97350.20
2019-06-07T02:39:05.860Z,97344.91
2019-06-07T02:41:38.549Z,97337.02
2019-06-07T02:44:01.626Z,97332.05
2019-06-07T02:46:36.196Z,97336.96
2019-06-07T02:48:57.065Z,97329.12
2019-06-07T02:51:27.290Z,97320.52
2019-06-07T02:53:52.566Z,97317.03
2019-06-07T02:56:48.605Z,97314.86
2019-06-07T02:58:48.455Z,97311.63
2019-06-07T03:01:15.761Z,97324.47
2019-06-07T03:03:42.683Z,97318.20
2019-06-07T03:06:12.546Z,97319.44
2019-06-07T03:08:39.652Z,97330.36
2019-06-07T03:11:06.755Z,97336.94
2019-06-07T03:13:37.172Z,97337.59
2019-06-07T03:16:03.924Z,97339.34
2019-06-07T03:19:05.280Z,97342.43
2019-06-07T03:21:36.362Z,97346.77
2019-06-07T03:24:03.493Z,97354.77
2019-06-07T03:26:34.908Z,97354.81
2019-06-07T03:29:00.218Z,97352.12
2019-06-07T03:31:31.310Z,97362.80
2019-06-07T03:33:56.217Z,97356.24
2019-06-07T03:36:25.741Z,97376.95
2019-06-07T03:38:51.834Z,97368.45
2019-06-07T03:41:18.665Z,97372.20
2019-06-07T03:43:45.461Z,97374.58
2019-06-07T03:46:12.362Z,97372.91
2019-06-07T03:48:41.386Z,97372.10
2019-06-07T03:51:24.252Z,97367.06
2019-06-07T03:53:37.358Z,97367.32
2019-06-07T03:56:05.379Z,97369.75
2019-06-07T03:58:37.893Z,97361.76
2019-06-07T04:01:04.951Z,97363.86
2019-06-07T04:03:42.104Z,97368.21
2019-06-07T04:06:00.484Z,97371.80
2019-06-07T04:08:28.271Z,97378.02
2019-06-07T04:11:00.282Z,97370.59
2019-06-07T04:13:24.076Z,97374.58
2019-06-07T04:15:51.186Z,97370.65
2019-06-07T04:18:18.639Z,97377.38
2019-06-07T04:20:45.454Z,97381.97
2019-06-07T04:23:27.902Z,97386.52
2019-06-07T04:25:42.636Z,97387.08
2019-06-07T04:28:09.683Z,97389.25
2019-06-07T04:30:42.009Z,97376.52
2019-06-07T04:33:09.678Z,97378.48
2019-06-07T04:35:40.042Z,97375.55
2019-06-07T04:38:06.579Z,97378.03
2019-06-07T04:40:35.847Z,97368.73
2019-06-07T04:43:02.826Z,97370.09
2019-06-07T04:45:37.360Z,97368.17
2019-06-07T04:47:59.173Z,97358.05
2019-06-07T04:50:27.234Z,97364.78
2019-06-07T04:52:54.027Z,97355.72
2019-06-07T04:55:29.055Z,97357.79
2019-06-07T04:57:56.476Z,97360.27
2019-06-07T05:00:49.781Z,97367.34
2019-06-07T05:03:00.594Z,97366.48
2019-06-07T05:05:29.301Z,97362.84
2019-06-07T05:07:56.311Z,97364.95
2019-06-07T05:10:23.128Z,97362.83
2019-06-07T05:12:49.823Z,97359.55
2019-06-07T05:15:16.670Z,97358.31
2019-06-07T05:17:45.223Z,97355.02
2019-06-07T05:20:12.105Z,97356.33
2019-06-07T05:22:44.391Z,97361.63
2019-06-07T05:25:07.976Z,97356.57
2019-06-07T05:27:36.457Z,97354.05
2019-06-07T05:30:13.634Z,97343.22
2019-06-07T05:32:34.277Z,97347.45
2019-06-07T05:35:01.327Z,97343.22
2019-06-07T05:37:38.045Z,97343.22
2019-06-07T05:40:05.666Z,97348.25
2019-06-07T05:42:34.570Z,97348.94
2019-06-07T05:45:01.452Z,97341.12
2019-06-07T05:47:28.304Z,97340.00
2019-06-07T05:49:55.342Z,97330.52
2019-06-07T05:52:23.490Z,97332.08
2019-06-07T05:54:51.379Z,97331.33
2019-06-07T05:57:23.966Z,97314.11
2019-06-07T05:59:50.898Z,97313.02
2019-06-07T06:02:23.160Z,97308.50
2019-06-07T06:04:50.719Z,97317.19
2019-06-07T06:07:34.761Z,97315.66
2019-06-07T06:10:03.183Z,97316.15
2019-06-07T06:12:35.467Z,97314.72
2019-06-07T06:14:58.669Z,97308.62
2019-06-07T06:17:36.865Z,97307.25
2019-06-07T06:20:07.917Z,97310.48
2019-06-07T06:22:41.710Z,97309.05
2019-06-07T06:25:31.557Z,97303.57
2019-06-07T06:28:05.900Z,97307.36
2019-06-07T06:30:08.844Z,97312.70
2019-06-07T06:32:54.379Z,97309.23
2019-06-07T06:35:05.465Z,97308.05
2019-06-07T06:37:32.290Z,97304.86
2019-06-07T06:39:59.146Z,97304.65
2019-06-07T06:42:26.093Z,97298.72
2019-06-07T06:44:54.242Z,97299.84
2019-06-07T06:47:21.527Z,97299.70
2019-06-07T06:49:50.021Z,97307.13
2019-06-07T06:52:17.119Z,97300.39
2019-06-07T06:54:59.228Z,97290.06
2019-06-07T06:57:26.376Z,97292.33
2019-06-07T06:59:55.674Z,97281.46
2019-06-07T07:02:23.883Z,97287.03
2019-06-07T07:04:54.175Z,97284.45
2019-06-07T07:07:23.193Z,97293.33
2019-06-07T07:09:54.958Z,97297.05
2019-06-07T07:12:19.257Z,97295.36
2019-06-07T07:14:49.172Z,97295.12
2019-06-07T07:17:14.722Z,97291.66
2019-06-07T07:19:42.567Z,97294.53
2019-06-07T07:22:10.391Z,97288.80
2019-06-07T07:24:37.094Z,97287.40
2019-06-07T07:27:03.947Z,97286.43
2019-06-07T07:29:31.008Z,97287.87
2019-06-07T07:31:57.836Z,97285.20
2019-06-07T07:34:34.689Z,97284.23
2019-06-07T07:36:59.229Z,97283.38
2019-06-07T07:39:22.318Z,97279.09
2019-06-07T07:42:15.323Z,97283.67
2019-06-07T07:44:17.856Z,97282.92
2019-06-07T07:46:46.511Z,97271.20
2019-06-07T07:49:13.440Z,97275.30
2019-06-07T07:51:40.219Z,97276.72
2019-06-07T07:54:10.616Z,97276.75
2019-06-07T07:56:35.772Z,97272.69
2019-06-07T07:59:03.053Z,97276.05
2019-06-07T08:01:29.893Z,97267.39
2019-06-07T08:03:57.397Z,97269.39
2019-06-07T08:06:25.576Z,97270.88
2019-06-07T08:08:54.475Z,97270.45
2019-06-07T08:11:21.104Z,97275.76
2019-06-07T08:13:48.127Z,97270.31
2019-06-07T08:16:18.535Z,97263.25
2019-06-07T08:18:43.659Z,97259.14
2019-06-07T08:21:24.355Z,97255.06
2019-06-07T08:23:39.323Z,97253.48
2019-06-07T08:26:07.343Z,97251.29
2019-06-07T08:28:34.270Z,97235.59
2019-06-07T08:31:07.044Z,97237.34
2019-06-07T08:33:30.136Z,97234.19
2019-06-07T08:36:10.529Z,97225.63
2019-06-07T08:38:29.741Z,97221.16
2019-06-07T08:40:59.135Z,97220.16
2019-06-07T08:43:23.035Z,97216.39
2019-06-07T08:45:51.272Z,97219.05
2019-06-07T08:48:27.907Z,97216.42
2019-06-07T08:50:47.561Z,97218.39
2019-06-07T08:53:14.382Z,97215.08
2019-06-07T08:55:41.832Z,97213.36
2019-06-07T08:58:09.123Z,97214.29
2019-06-07T09:00:47.091Z,97212.59
2019-06-07T09:03:07.167Z,97214.44
2019-06-07T09:05:33.524Z,97202.73
2019-06-07T09:08:23.663Z,97195.05
2019-06-07T09:10:30.110Z,97203.30
2019-06-07T09:13:03.875Z,97194.92
2019-06-07T09:15:27.016Z,97197.45
2019-06-07T09:18:40.144Z,97194.13
2019-06-07T09:20:36.664Z,97188.36
2019-06-07T09:22:59.098Z,97187.09
2019-06-07T09:25:24.806Z,97183.75
2019-06-07T09:27:51.595Z,97179.92
2019-06-07T09:30:44.292Z,97173.02
2019-06-07T09:33:11.846Z,97169.45
2019-06-07T09:35:38.713Z,97164.93
2019-06-07T09:38:18.141Z,97164.01
2019-06-07T09:40:35.085Z,97162.84
2019-06-07T09:43:47.411Z,97157.50
2019-06-07T09:45:30.657Z,97151.45
2019-06-07T09:47:59.467Z,97137.41
2019-06-07T09:50:26.245Z,97146.33
2019-06-07T09:52:58.703Z,97144.67
2019-06-07T09:55:24.897Z,97137.03
2019-06-07T09:57:50.347Z,97134.67
2019-06-07T10:02:46.220Z,97120.05
2019-06-07T10:05:14.333Z,97118.41
2019-06-07T10:08:00.020Z,97125.00
2019-06-07T10:12:39.201Z,97107.00
2019-06-07T10:15:07.031Z,97104.89
2019-06-07T10:17:33.809Z,97094.42
2019-06-07T10:20:02.604Z,97098.55
2019-06-07T10:22:29.210Z,97091.56
2019-06-07T10:24:56.033Z,97086.19
2019-06-07T10:27:22.776Z,97088.39
2019-06-07T10:29:49.558Z,97082.39
2019-06-07T10:32:16.402Z,97081.77
2019-06-07T10:34:43.310Z,97077.59
2019-06-07T10:37:15.016Z,97079.20
2019-06-07T10:39:48.204Z,97081.02
2019-06-07T10:42:08.255Z,97077.67
2019-06-07T10:44:36.172Z,97076.58
2019-06-07T10:47:04.000Z,97072.17
2019-06-07T10:49:31.083Z,97073.11
2019-06-07T10:52:02.946Z,97069.20
2019-06-07T10:54:30.824Z,97070.88
2019-06-07T10:56:57.401Z,97062.38
2019-06-07T10:59:24.187Z,97059.61
2019-06-07T11:01:51.065Z,97059.09
2019-06-07T11:04:17.786Z,97057.25
2019-06-07T11:06:44.733Z,97057.84
2019-06-07T11:09:12.054Z,97062.08
2019-06-07T11:11:39.115Z,97058.17
2019-06-07T11:14:06.427Z,97063.78
2019-06-07T11:16:33.211Z,97055.62
2019-06-07T11:19:00.138Z,97058.39
2019-06-07T11:21:26.978Z,97054.23
2019-06-07T11:23:53.783Z,97046.45
2019-06-07T11:26:20.592Z,97048.05
2019-06-07T11:28:47.475Z,97041.02
2019-06-07T11:31:15.132Z,97044.55
2019-06-07T11:33:42.249Z,97038.36
2019-06-07T11:36:08.962Z,97041.78
2019-06-07T11:38:35.756Z,97050.20
2019-06-07T11:41:02.590Z,97037.36
2019-06-07T11:43:29.294Z,97039.37
2019-06-07T11:45:56.122Z,97031.88
2019-06-07T11:48:23.010Z,97026.13
2019-06-07T11:50:49.947Z,97019.56
2019-06-07T11:53:16.634Z,97021.13
2019-06-07T11:55:43.540Z,97019.30
2019-06-07T11:58:14.353Z,97014.55
2019-06-07T12:00:40.119Z,97020.42
2019-06-07T12:03:11.576Z,97019.09
2019-06-07T12:05:38.501Z,97013.37
2019-06-07T12:08:06.397Z,97018.92
2019-06-07T12:10:42.148Z,97016.45
2019-06-07T12:13:01.916Z,97017.25
2019-06-07T12:15:28.846Z,97011.59
2019-06-07T12:18:00.770Z,97006.59
2019-06-07T12:20:28.679Z,97002.73
2019-06-07T12:22:55.509Z,97005.59
2019-06-07T12:25:25.150Z,97007.74
2019-06-07T12:27:52.198Z,97000.50
2019-06-07T12:30:26.266Z,96992.30
2019-06-07T12:32:48.054Z,96992.45
2019-06-07T12:35:15.654Z,96992.52
2019-06-07T12:37:44.732Z,96990.95
2019-06-07T12:40:15.751Z,96984.17
2019-06-07T12:42:40.185Z,96982.42
2019-06-07T12:45:07.344Z,96979.89
2019-06-07T12:47:34.158Z,96976.72
2019-06-07T12:50:01.151Z,96971.43
2019-06-07T12:52:27.859Z,96972.20
2019-06-07T12:54:54.677Z,96959.08
2019-06-07T12:57:22.111Z,96954.01
2019-06-07T12:59:49.480Z,96949.66
2019-06-07T13:02:16.434Z,96955.19
2019-06-07T13:04:44.227Z,96948.11
2019-06-07T13:07:11.037Z,96949.12
2019-06-07T13:09:37.729Z,96941.08
2019-06-07T13:12:04.619Z,96939.52
2019-06-07T13:14:31.456Z,96934.59
2019-06-07T13:16:58.325Z,96941.78
2019-06-07T13:19:25.134Z,96938.59
2019-06-07T13:21:52.001Z,96941.02
2019-06-07T13:24:19.399Z,96932.29
2019-06-07T13:26:47.606Z,96935.28
2019-06-07T13:29:14.410Z,96932.89
2019-06-07T13:31:41.574Z,96934.48
2019-06-07T13:34:08.358Z,96939.72
2019-06-07T13:36:35.310Z,96928.61
2019-06-07T13:39:02.134Z,96925.03
2019-06-07T13:41:40.546Z,96923.84
2019-06-07T13:43:57.626Z,96921.25
2019-06-07T13:46:25.272Z,96910.12
2019-06-07T13:48:52.514Z,96912.31
2019-06-07T13:51:22.511Z,96906.53
2019-06-07T13:53:48.068Z,96910.75
2019-06-07T13:56:21.790Z,96909.32
2019-06-07T13:58:48.814Z,96900.36
2019-06-07T14:01:16.042Z,96902.14
2019-06-07T14:03:42.868Z,96906.92
2019-06-07T14:06:09.842Z,96901.30
2019-06-07T14:08:36.958Z,96889.34
2019-06-07T14:11:03.966Z,96891.73
2019-06-07T14:13:30.814Z,96885.73
2019-06-07T14:15:57.785Z,96884.49
2019-06-07T14:18:24.647Z,96880.31
2019-06-07T14:20:51.675Z,96874.92
2019-06-07T14:23:18.528Z,96876.63
2019-06-07T14:25:45.389Z,96880.01
2019-06-07T14:28:13.481Z,96884.58
2019-06-07T14:30:40.309Z,96887.33
2019-06-07T14:33:07.094Z,96887.54
2019-06-07T14:35:33.831Z,96885.45
2019-06-07T14:38:00.518Z,96885.45
2019-06-07T14:40:27.968Z,96892.02
2019-06-07T14:42:54.832Z,96882.86
2019-06-07T14:45:21.868Z,96882.86
2019-06-07T14:47:48.822Z,96881.86
2019-06-07T14:50:16.688Z,96875.46
2019-06-07T14:52:43.519Z,96873.30
2019-06-07T14:55:10.407Z,96862.30
2019-06-07T14:57:38.549Z,96862.30
2019-06-07T15:00:11.322Z,96871.97
2019-06-07T15:02:42.753Z,96871.13
2019-06-07T15:05:09.840Z,96862.92
2019-06-07T15:07:36.881Z,96854.95
2019-06-07T15:10:04.375Z,96854.95
2019-06-07T15:12:31.219Z,96859.13
2019-06-07T15:14:58.534Z,96848.34
2019-06-07T15:17:26.462Z,96841.74
2019-06-07T15:19:53.383Z,96844.16
2019-06-07T15:22:20.276Z,96848.15
2019-06-07T15:24:47.067Z,96842.38
2019-06-07T15:27:15.833Z,96842.38
2019-06-07T15:29:42.870Z,96827.59
2019-06-07T15:32:10.156Z,96827.59
2019-06-07T15:34:38.391Z,96825.02
2019-06-07T15:37:07.779Z,96823.27
2019-06-07T15:39:34.736Z,96823.27
2019-06-07T15:42:01.632Z,96822.70
2019-06-07T15:44:31.327Z,96822.77
2019-06-07T15:46:58.180Z,96821.58
2019-06-07T15:49:25.089Z,96823.60
2019-06-07T15:51:51.934Z,96826.22
2019-06-07T15:54:18.677Z,96818.45
2019-06-07T15:56:45.703Z,96815.08
2019-06-07T15:59:12.549Z,96821.86
2019-06-07T16:01:39.713Z,96821.86
2019-06-07T16:04:06.646Z,96817.31
2019-06-07T16:06:34.278Z,96805.62
2019-06-07T16:09:01.389Z,96811.99
2019-06-07T16:11:28.470Z,96807.23
2019-06-07T16:13:55.257Z,96808.02
2019-06-07T16:16:22.307Z,96809.65
2019-06-07T16:18:49.199Z,96805.09
2019-06-07T16:21:16.102Z,96802.52
2019-06-07T16:23:44.091Z,96798.94
2019-06-07T16:26:10.975Z,96797.16
2019-06-07T16:28:38.299Z,96790.62
2019-06-07T16:31:05.454Z,96766.80
2019-06-07T16:33:32.329Z,96800.20
2019-06-07T16:35:59.290Z,96792.44
2019-06-07T16:38:26.068Z,96787.28
2019-06-07T16:40:52.751Z,96781.33
2019-06-07T16:43:21.542Z,96774.38
2019-06-07T16:45:49.039Z,96768.78
2019-06-07T16:48:16.036Z,96764.66
2019-06-07T16:50:43.054Z,96764.47
2019-06-07T16:53:11.106Z,96774.64
2019-06-07T16:55:38.708Z,96776.84
2019-06-07T16:58:05.639Z,96770.67
2019-06-07T17:00:32.339Z,96771.09
2019-06-07T17:02:59.045Z,96769.12
2019-06-07T17:05:25.848Z,96759.57
2019-06-07T17:07:52.689Z,96775.14
2019-06-07T17:10:20.505Z,96771.56
2019-06-07T17:12:48.806Z,96770.39
2019-06-07T17:15:17.446Z,96750.77
2019-06-07T17:17:45.130Z,96770.81
2019-06-07T17:20:15.549Z,96771.42
2019-06-07T17:22:43.901Z,96775.20
2019-06-07T17:25:13.296Z,96775.84
2019-06-07T17:27:40.068Z,96771.45
2019-06-07T17:30:07.784Z,96768.67
2019-06-07T17:32:47.600Z,96769.87
2019-06-07T17:35:04.072Z,96771.86
2019-06-07T17:37:30.834Z,96771.47
2019-06-07T17:39:57.779Z,96761.37
2019-06-07T17:42:24.475Z,96766.54
2019-06-07T17:44:51.560Z,96759.38
2019-06-07T17:47:18.489Z,96759.39
2019-06-07T17:49:45.806Z,96757.41
2019-06-07T17:52:12.908Z,96755.22
2019-06-07T17:54:39.727Z,96749.86
2019-06-07T17:57:06.432Z,96748.10
2019-06-07T17:59:33.123Z,96739.36
2019-06-07T18:02:14.386Z,96746.91
2019-06-07T18:04:29.749Z,96747.70
2019-06-07T18:06:56.662Z,96751.05
2019-06-07T18:09:23.789Z,96753.84
2019-06-07T18:11:50.585Z,96745.13
2019-06-07T18:14:17.359Z,96750.88
2019-06-07T18:16:44.438Z,96752.67
2019-06-07T18:19:11.275Z,96748.29
2019-06-07T18:21:38.080Z,96745.91
2019-06-07T18:24:04.899Z,96746.52
2019-06-07T18:26:31.638Z,96741.95
2019-06-07T18:28:59.350Z,96746.70
2019-06-07T18:31:26.241Z,96738.95
2019-06-07T18:33:53.048Z,96742.91
2019-06-07T18:36:19.724Z,96738.73
2019-06-07T18:38:46.941Z,96736.95
2019-06-07T18:41:13.876Z,96738.15
2019-06-07T18:43:40.648Z,96739.89
2019-06-07T18:46:07.331Z,96745.43
2019-06-07T18:48:34.108Z,96752.19
2019-06-07T18:51:00.813Z,96750.38
2019-06-07T18:53:27.513Z,96756.89
2019-06-07T18:55:54.376Z,96756.47
2019-06-07T18:58:21.232Z,96768.77
2019-06-07T19:00:49.766Z,96760.56
2019-06-07T19:03:16.855Z,96769.02
2019-06-07T19:05:43.699Z,96776.09
2019-06-07T19:08:10.516Z,96780.37
2019-06-07T19:10:37.089Z,96780.29
2019-06-07T19:13:03.919Z,96782.80
2019-06-07T19:15:38.729Z,96787.29
2019-06-07T19:18:05.594Z,96786.81
2019-06-07T19:20:32.429Z,96792.68
2019-06-07T19:23:00.505Z,96805.54
2019-06-07T19:25:27.580Z,96804.88
2019-06-07T19:27:54.964Z,96809.17
2019-06-07T19:30:21.844Z,96810.91
2019-06-07T19:32:49.762Z,96811.62
2019-06-07T19:35:17.766Z,96814.66
2019-06-07T19:37:44.568Z,96820.90
2019-06-07T19:40:11.592Z,96825.94
2019-06-07T19:42:39.541Z,96831.52
2019-06-07T19:45:29.095Z,96828.05
2019-06-07T19:47:43.690Z,96836.64
2019-06-07T19:50:13.039Z,96844.85
2019-06-07T19:52:39.817Z,96845.53
2019-06-07T19:55:09.812Z,96854.53
2019-06-07T19:57:41.784Z,96856.81
2019-06-07T20:00:14.507Z,96856.07
2019-06-07T20:02:42.337Z,96860.14
2019-06-07T20:05:13.924Z,96864.95
2019-06-07T20:07:40.860Z,96882.23
2019-06-07T20:10:14.807Z,96887.91
2019-06-07T20:12:41.767Z,96888.99
2019-06-07T20:15:27.997Z,96892.65
2019-06-07T20:17:44.532Z,96901.03
2019-06-07T20:20:19.103Z,96896.39
2019-06-07T20:22:48.028Z,96900.29
2019-06-07T20:25:15.284Z,96906.05
2019-06-07T20:27:42.251Z,96906.20
2019-06-07T20:30:10.907Z,96916.83
2019-06-07T20:32:37.816Z,96916.77
2019-06-07T20:35:06.030Z,96919.39
2019-06-07T20:37:35.026Z,96931.72
2019-06-07T20:40:20.738Z,96938.09
2019-06-07T20:42:46.986Z,96938.81
2019-06-07T20:45:32.543Z,96939.25
2019-06-07T20:47:49.668Z,96943.72
2019-06-07T20:50:16.720Z,96947.56
2019-06-07T20:52:44.587Z,96951.48
2019-06-07T20:55:17.185Z,96958.31
2019-06-07T20:57:44.936Z,96954.61
2019-06-07T21:00:22.108Z,96970.89
2019-06-07T21:02:51.509Z,96981.28
2019-06-07T21:05:20.321Z,96983.74
2019-06-07T21:07:49.370Z,96992.53
2019-06-07T21:10:18.922Z,96997.42
2019-06-07T21:12:45.772Z,96996.63
2019-06-07T21:15:14.524Z,97011.59
2019-06-07T21:17:41.908Z,97020.59
2019-06-07T21:20:13.778Z,97022.02
2019-06-07T21:22:38.533Z,97032.49
2019-06-07T21:25:07.260Z,97059.66
2019-06-07T21:27:35.248Z,97098.54
2019-06-07T21:30:03.495Z,97108.78
2019-06-07T21:32:31.589Z,97113.45
2019-06-07T21:34:58.399Z,97122.86
2019-06-07T21:37:25.301Z,97133.10
2019-06-07T21:39:54.263Z,97166.30
2019-06-07T21:42:22.207Z,97174.36
2019-06-07T21:44:50.692Z,97179.31
2019-06-07T21:47:17.622Z,97199.89
2019-06-07T21:49:44.365Z,97213.34
2019-06-07T21:52:11.250Z,97229.53
2019-06-07T21:54:38.025Z,97232.11
2019-06-07T21:57:04.839Z,97243.21
2019-06-07T21:59:31.653Z,97266.98
2019-06-07T22:01:58.612Z,97265.97
2019-06-07T22:04:25.489Z,97280.39
2019-06-07T22:06:52.524Z,97296.86
2019-06-07T22:09:19.333Z,97312.05
2019-06-07T22:11:46.116Z,97331.17
2019-06-07T22:14:12.893Z,97352.09
2019-06-07T22:16:39.716Z,97353.95
2019-06-07T22:19:06.648Z,97354.63
2019-06-07T22:21:33.440Z,97373.09
2019-06-07T22:24:00.244Z,97379.41
2019-06-07T22:26:27.030Z,97392.73
2019-06-07T22:28:55.915Z,97394.66
2019-06-07T22:31:22.703Z,97399.60
2019-06-07T22:33:49.471Z,97418.53
2019-06-07T22:36:16.242Z,97428.98
2019-06-07T22:38:42.978Z,97434.84
2019-06-07T22:41:09.794Z,97450.33
2019-06-07T22:43:36.458Z,97463.41
2019-06-07T22:46:03.400Z,97474.31
2019-06-07T22:48:31.238Z,97474.52
2019-06-07T22:51:00.091Z,97487.09
2019-06-07T22:53:26.874Z,97504.99
2019-06-07T22:56:00.471Z,97505.56
2019-06-07T22:58:27.375Z,97514.03
2019-06-07T23:00:54.152Z,97529.17
2019-06-07T23:03:20.965Z,97538.94
2019-06-07T23:05:47.754Z,97540.42
2019-06-07T23:08:15.009Z,97542.09
2019-06-07T23:10:41.884Z,97544.27
2019-06-07T23:13:09.280Z,97555.62
2019-06-07T23:15:36.105Z,97564.30
2019-06-07T23:18:02.871Z,97561.31
2019-06-07T23:20:29.657Z,97566.51
2019-06-07T23:22:56.468Z,97574.32
2019-06-07T23:25:24.696Z,97573.37
2019-06-07T23:27:51.628Z,97577.87
2019-06-07T23:30:21.706Z,97580.25
2019-06-07T23:32:48.539Z,97579.30
2019-06-07T23:35:17.089Z,97586.84
2019-06-07T23:37:44.159Z,97590.97
2019-06-07T23:40:11.259Z,97585.17
2019-06-07T23:42:38.016Z,97604.62
2019-06-07T23:45:04.851Z,97608.15
2019-06-07T23:47:31.710Z,97627.59
2019-06-07T23:49:58.398Z,97635.45
2019-06-07T23:52:25.107Z,97634.08
2019-06-07T23:54:51.884Z,97622.59
2019-06-07T23:57:19.548Z,97628.33
2019-06-07T23:59:47.263Z,97628.47
